createdAt,value
2023-04-13T00:00:59.735Z,99.99
2023-04-13T00:02:00.832Z,99.99
2023-04-13T00:03:01.227Z,99.99
2023-04-13T00:04:02.593Z,99.99
2023-04-13T00:05:02.533Z,99.99
2023-04-13T00:06:02.608Z,99.99
2023-04-13T00:07:03.558Z,99.99
2023-04-13T00:08:03.918Z,99.99
2023-04-13T00:09:04.044Z,99.99
2023-04-13T00:10:04.518Z,99.99
2023-04-13T00:11:04.838Z,99.99
2023-04-13T00:12:05.720Z,99.99
2023-04-13T00:13:06.422Z,99.99
2023-04-13T00:14:07.182Z,99.99
2023-04-13T00:15:07.699Z,99.99
2023-04-13T00:16:08.450Z,99.99
2023-04-13T00:17:09.249Z,99.99
2023-04-13T00:18:09.253Z,99.99
2023-04-13T00:19:10.067Z,99.99
2023-04-13T00:20:10.464Z,99.99
2023-04-13T00:21:11.215Z,99.99
2023-04-13T00:22:12.209Z,99.99
2023-04-13T00:23:12.554Z,99.99
2023-04-13T00:24:13.519Z,99.99
2023-04-13T00:25:14.298Z,99.99
2023-04-13T00:26:15.479Z,99.99
2023-04-13T00:27:15.984Z,99.99
2023-04-13T00:28:16.732Z,99.99
2023-04-13T00:29:17.268Z,99.99
2023-04-13T00:30:18.515Z,99.99
2023-04-13T00:31:19.262Z,99.99
2023-04-13T00:32:19.545Z,99.99
2023-04-13T00:33:20.629Z,99.99
2023-04-13T00:34:21.041Z,99.99
2023-04-13T00:35:21.950Z,99.99
2023-04-13T00:36:22.898Z,99.99
2023-04-13T00:37:23.591Z,99.99
2023-04-13T00:38:24.879Z,99.99
2023-04-13T00:39:25.921Z,99.99
2023-04-13T00:40:26.761Z,99.99
2023-04-13T00:41:26.901Z,99.99
2023-04-13T00:42:27.408Z,99.99
2023-04-13T00:43:27.688Z,99.99
2023-04-13T00:44:27.977Z,99.99
2023-04-13T00:45:28.289Z,99.99
2023-04-13T00:46:28.990Z,99.99
2023-04-13T00:47:29.901Z,99.99
2023-04-13T00:48:30.740Z,99.99
2023-04-13T00:49:31.428Z,99.99
2023-04-13T00:50:32.029Z,99.99
2023-04-13T00:51:32.557Z,99.99
2023-04-13T00:52:32.862Z,99.99
2023-04-13T00:53:33.443Z,99.99
2023-04-13T00:54:34.170Z,99.99
2023-04-13T00:55:34.110Z,99.99
2023-04-13T00:56:34.305Z,99.99
2023-04-13T00:57:35.240Z,99.99
2023-04-13T00:58:36.068Z,99.99
2023-04-13T00:59:36.808Z,99.99
2023-04-13T01:00:37.616Z,99.99
2023-04-13T01:01:38.125Z,99.99
2023-04-13T01:02:39.084Z,99.99
2023-04-13T01:03:40.135Z,99.99
2023-04-13T01:04:40.164Z,99.99
2023-04-13T01:05:40.235Z,99.99
2023-04-13T01:06:40.965Z,99.99
2023-04-13T01:07:41.462Z,99.99
2023-04-13T01:08:42.227Z,99.99
2023-04-13T01:09:42.749Z,99.99
2023-04-13T01:10:43.683Z,99.99
2023-04-13T01:11:44.219Z,99.99
2023-04-13T01:12:44.731Z,99.99
2023-04-13T01:13:45.238Z,99.99
2023-04-13T01:14:46.233Z,99.99
2023-04-13T01:15:46.745Z,99.99
2023-04-13T01:16:47.358Z,99.99
2023-04-13T01:17:48.740Z,99.99
2023-04-13T01:18:49.238Z,99.99
2023-04-13T01:19:49.772Z,99.99
2023-04-13T01:20:50.583Z,99.99
2023-04-13T01:21:50.714Z,99.99
2023-04-13T01:22:51.749Z,99.99
2023-04-13T01:23:52.268Z,99.99
2023-04-13T01:24:53.149Z,99.99
2023-04-13T01:25:54.011Z,99.99
2023-04-13T01:26:54.921Z,99.99
2023-04-13T01:27:55.220Z,99.99
2023-04-13T01:28:55.816Z,99.99
2023-04-13T01:29:56.529Z,99.99
2023-04-13T01:30:56.995Z,99.99
2023-04-13T01:31:57.869Z,99.99
2023-04-13T01:32:58.883Z,99.99
2023-04-13T01:33:59.172Z,99.99
2023-04-13T01:34:59.248Z,99.99
2023-04-13T01:35:59.736Z,99.99
2023-04-13T01:36:59.683Z,99.99
2023-04-13T01:38:00.165Z,99.99
2023-04-13T01:39:00.869Z,99.99
2023-04-13T01:40:01.218Z,99.99
2023-04-13T01:41:02.056Z,99.99
2023-04-13T01:42:02.625Z,99.99
2023-04-13T01:43:03.148Z,99.99
2023-04-13T01:44:03.913Z,99.99
2023-04-13T01:45:04.468Z,99.99
2023-04-13T01:46:05.413Z,99.99
2023-04-13T01:47:06.429Z,99.99
2023-04-13T01:48:07.114Z,99.99
2023-04-13T01:49:07.795Z,99.99
2023-04-13T01:50:08.495Z,99.99
2023-04-13T01:51:09.160Z,99.99
2023-04-13T01:52:09.668Z,99.99
2023-04-13T01:53:10.179Z,99.99
2023-04-13T01:54:10.414Z,99.99
2023-04-13T01:55:11.188Z,99.99
2023-04-13T01:56:11.823Z,99.99
2023-04-13T01:57:12.328Z,99.99
2023-04-13T01:58:13.075Z,99.99
2023-04-13T01:59:13.578Z,99.99
2023-04-13T02:00:14.324Z,99.99
2023-04-13T02:01:14.805Z,99.99
2023-04-13T02:02:15.055Z,99.99
2023-04-13T02:03:15.353Z,99.99
2023-04-13T02:04:15.772Z,99.99
2023-04-13T02:05:15.565Z,99.99
2023-04-13T02:06:16.264Z,99.99
2023-04-13T02:07:16.796Z,99.99
2023-04-13T02:08:16.733Z,99.99
2023-04-13T02:09:17.428Z,99.99
2023-04-13T02:10:18.711Z,99.99
2023-04-13T02:11:18.925Z,99.99
2023-04-13T02:12:19.829Z,99.99
2023-04-13T02:13:19.945Z,99.99
2023-04-13T02:14:20.819Z,99.99
2023-04-13T02:15:21.341Z,99.99
2023-04-13T02:16:22.293Z,99.99
2023-04-13T02:17:23.354Z,99.99
2023-04-13T02:18:24.178Z,99.99
2023-04-13T02:19:24.463Z,99.99
2023-04-13T02:20:25.409Z,99.99
2023-04-13T02:21:26.194Z,99.99
2023-04-13T02:22:26.891Z,99.99
2023-04-13T02:23:27.382Z,99.99
2023-04-13T02:24:28.320Z,99.99
2023-04-13T02:25:28.992Z,99.99
2023-04-13T02:26:29.752Z,99.99
2023-04-13T02:27:30.641Z,99.99
2023-04-13T02:28:31.337Z,99.99
2023-04-13T02:29:32.110Z,99.99
2023-04-13T02:30:33.030Z,99.99
2023-04-13T02:31:33.649Z,99.99
2023-04-13T02:32:34.517Z,99.99
2023-04-13T02:33:35.214Z,99.99
2023-04-13T02:34:35.712Z,99.99
2023-04-13T02:35:36.211Z,99.99
2023-04-13T02:36:36.926Z,99.99
2023-04-13T02:37:37.702Z,99.99
2023-04-13T02:38:38.652Z,99.99
2023-04-13T02:39:39.154Z,99.99
2023-04-13T02:40:39.874Z,99.99
2023-04-13T02:41:40.776Z,99.99
2023-04-13T02:42:41.261Z,99.99
2023-04-13T02:43:41.973Z,99.99
2023-04-13T02:44:41.846Z,99.99
2023-04-13T02:45:42.457Z,99.99
2023-04-13T02:46:42.424Z,99.99
2023-04-13T02:47:42.791Z,99.99
2023-04-13T02:48:43.793Z,99.99
2023-04-13T02:49:44.514Z,99.99
2023-04-13T02:50:45.215Z,99.99
2023-04-13T02:51:45.483Z,99.99
2023-04-13T02:52:46.008Z,99.99
2023-04-13T02:53:46.916Z,99.99
2023-04-13T02:54:47.953Z,99.99
2023-04-13T02:55:48.783Z,99.99
2023-04-13T02:56:48.740Z,99.99
2023-04-13T02:57:49.223Z,99.99
2023-04-13T02:58:50.208Z,99.99
2023-04-13T02:59:51.115Z,99.99
2023-04-13T03:00:52.069Z,99.99
2023-04-13T03:01:52.359Z,99.99
2023-04-13T03:02:52.997Z,99.99
2023-04-13T03:03:53.808Z,99.99
2023-04-13T03:04:53.725Z,99.99
2023-04-13T03:05:54.818Z,99.99
2023-04-13T03:06:55.320Z,99.99
2023-04-13T03:07:56.269Z,99.99
2023-04-13T03:08:56.772Z,99.99
2023-04-13T03:09:57.489Z,99.99
2023-04-13T03:10:58.191Z,99.99
2023-04-13T03:11:59.178Z,99.99
2023-04-13T03:12:59.947Z,99.99
2023-04-13T03:14:01.151Z,99.99
2023-04-13T03:15:01.110Z,99.99
2023-04-13T03:16:01.274Z,99.99
2023-04-13T03:17:01.923Z,99.99
2023-04-13T03:18:03.048Z,99.99
2023-04-13T03:19:03.857Z,99.99
2023-04-13T03:20:04.328Z,99.99
2023-04-13T03:21:04.612Z,99.99
2023-04-13T03:22:04.843Z,99.99
2023-04-13T03:23:05.753Z,99.99
2023-04-13T03:24:06.760Z,99.99
2023-04-13T03:25:07.666Z,99.99
2023-04-13T03:26:08.568Z,99.99
2023-04-13T03:27:09.543Z,99.99
2023-04-13T03:28:10.027Z,99.99
2023-04-13T03:29:10.932Z,99.99
2023-04-13T03:30:11.923Z,99.99
2023-04-13T03:31:13.089Z,99.99
2023-04-13T03:32:13.642Z,99.99
2023-04-13T03:33:14.580Z,99.99
2023-04-13T03:34:15.296Z,99.99
2023-04-13T03:35:15.627Z,99.99
2023-04-13T03:36:16.158Z,99.99
2023-04-13T03:37:17.085Z,99.99
2023-04-13T03:38:17.032Z,99.99
2023-04-13T03:39:17.757Z,99.99
2023-04-13T03:40:18.158Z,99.99
2023-04-13T03:41:18.862Z,99.99
2023-04-13T03:42:19.907Z,99.99
2023-04-13T03:43:20.596Z,99.99
2023-04-13T03:44:21.080Z,99.99
2023-04-13T03:45:21.601Z,99.99
2023-04-13T03:46:22.231Z,99.99
2023-04-13T03:47:22.816Z,99.99
2023-04-13T03:48:23.294Z,99.99
2023-04-13T03:49:23.995Z,99.99
2023-04-13T03:50:24.698Z,99.99
2023-04-13T03:51:24.974Z,99.99
2023-04-13T03:52:25.195Z,99.99
2023-04-13T03:53:26.374Z,99.99
2023-04-13T03:54:27.297Z,99.99
2023-04-13T03:55:27.573Z,99.99
2023-04-13T03:56:27.932Z,99.99
2023-04-13T03:57:28.905Z,99.99
2023-04-13T03:58:29.061Z,99.99
2023-04-13T03:59:29.543Z,99.99
2023-04-13T04:00:30.258Z,99.99
2023-04-13T04:01:31.027Z,99.99
2023-04-13T04:02:32.046Z,99.99
2023-04-13T04:03:32.042Z,99.99
2023-04-13T04:04:32.423Z,99.99
2023-04-13T04:05:32.801Z,99.99
2023-04-13T04:06:33.738Z,99.99
2023-04-13T04:07:34.252Z,99.99
2023-04-13T04:08:34.972Z,99.99
2023-04-13T04:09:35.483Z,99.99
2023-04-13T04:10:36.241Z,99.99
2023-04-13T04:11:36.524Z,99.99
2023-04-13T04:12:37.205Z,99.99
2023-04-13T04:13:37.695Z,99.99
2023-04-13T04:14:38.172Z,99.99
2023-04-13T04:15:38.696Z,99.99
2023-04-13T04:16:39.239Z,99.99
2023-04-13T04:17:40.642Z,99.99
2023-04-13T04:18:41.057Z,99.99
2023-04-13T04:19:41.598Z,99.99
2023-04-13T04:20:42.104Z,99.99
2023-04-13T04:21:42.823Z,99.99
2023-04-13T04:22:43.480Z,99.99
2023-04-13T04:23:44.406Z,99.99
2023-04-13T04:24:45.316Z,99.99
2023-04-13T04:25:45.822Z,99.99
2023-04-13T04:26:46.292Z,99.99
2023-04-13T04:27:47.246Z,99.99
2023-04-13T04:28:47.928Z,99.99
2023-04-13T04:29:48.617Z,99.99
2023-04-13T04:30:49.348Z,99.99
2023-04-13T04:31:49.763Z,99.99
2023-04-13T04:32:50.307Z,99.99
2023-04-13T04:33:51.382Z,99.99
2023-04-13T04:34:52.484Z,99.99
2023-04-13T04:35:53.321Z,99.99
2023-04-13T04:36:53.702Z,99.99
2023-04-13T04:37:54.065Z,99.99
2023-04-13T04:38:54.580Z,99.99
2023-04-13T04:39:55.064Z,99.99
2023-04-13T04:40:55.987Z,99.99
2023-04-13T04:41:56.710Z,99.99
2023-04-13T04:42:57.334Z,99.99
2023-04-13T04:43:58.196Z,99.99
2023-04-13T04:44:58.478Z,99.99
2023-04-13T04:45:59.084Z,99.99
2023-04-13T04:46:59.964Z,99.99
2023-04-13T04:48:00.755Z,99.99
2023-04-13T04:49:01.536Z,99.99
2023-04-13T04:50:02.072Z,99.99
2023-04-13T04:51:01.979Z,99.99
2023-04-13T04:52:02.329Z,99.99
2023-04-13T04:53:02.511Z,99.99
2023-04-13T04:54:04.004Z,99.99
2023-04-13T04:55:03.721Z,99.99
2023-04-13T04:56:04.643Z,99.99
2023-04-13T04:57:05.116Z,99.99
2023-04-13T04:58:06.110Z,99.99
2023-04-13T04:59:06.709Z,99.99
2023-04-13T05:00:07.709Z,99.99
2023-04-13T05:01:07.930Z,99.99
2023-04-13T05:02:07.961Z,99.99
2023-04-13T05:03:08.527Z,99.99
2023-04-13T05:04:08.572Z,99.99
2023-04-13T05:05:09.348Z,99.99
2023-04-13T05:06:09.877Z,99.99
2023-04-13T05:07:10.604Z,99.99
2023-04-13T05:08:11.324Z,99.99
2023-04-13T05:09:11.381Z,99.99
2023-04-13T05:10:11.924Z,99.99
2023-04-13T05:11:12.457Z,99.99
2023-04-13T05:12:12.958Z,99.99
2023-04-13T05:13:13.473Z,99.99
2023-04-13T05:14:14.384Z,99.99
2023-04-13T05:15:14.695Z,99.99
2023-04-13T05:16:15.327Z,99.99
2023-04-13T05:17:16.299Z,99.99
2023-04-13T05:18:16.793Z,99.99
2023-04-13T05:19:17.299Z,99.99
2023-04-13T05:20:18.613Z,99.99
2023-04-13T05:21:19.309Z,99.99
2023-04-13T05:22:19.813Z,99.99
2023-04-13T05:23:20.401Z,99.99
2023-04-13T05:24:21.172Z,99.99
2023-04-13T05:25:21.874Z,99.99
2023-04-13T05:26:22.560Z,99.99
2023-04-13T05:27:23.251Z,99.99
2023-04-13T05:28:24.218Z,99.99
2023-04-13T05:29:24.713Z,99.99
2023-04-13T05:30:25.401Z,99.99
2023-04-13T05:31:25.979Z,99.99
2023-04-13T05:32:26.564Z,99.99
2023-04-13T05:33:27.269Z,99.99
2023-04-13T05:34:27.571Z,99.99
2023-04-13T05:35:28.480Z,99.99
2023-04-13T05:36:29.298Z,99.99
2023-04-13T05:37:30.058Z,99.99
2023-04-13T05:38:30.753Z,99.99
2023-04-13T05:39:31.326Z,99.99
2023-04-13T05:40:31.639Z,99.99
2023-04-13T05:41:32.357Z,99.99
2023-04-13T05:42:33.263Z,99.99
2023-04-13T05:43:33.411Z,99.99
2023-04-13T05:44:33.748Z,99.99
2023-04-13T05:45:34.327Z,99.99
2023-04-13T05:46:34.372Z,99.99
2023-04-13T05:47:35.146Z,99.99
2023-04-13T05:48:36.758Z,99.99
2023-04-13T05:49:35.288Z,99.99
2023-04-13T05:50:35.961Z,99.99
2023-04-13T05:51:35.869Z,99.99
2023-04-13T05:52:36.568Z,99.99
2023-04-13T05:53:36.803Z,99.99
2023-04-13T05:54:37.784Z,99.99
2023-04-13T05:55:38.676Z,99.99
2023-04-13T05:56:39.554Z,99.99
2023-04-13T05:57:40.350Z,99.99
2023-04-13T05:58:40.894Z,99.99
2023-04-13T05:59:41.594Z,99.99
2023-04-13T06:00:42.103Z,99.99
2023-04-13T06:01:42.826Z,99.99
2023-04-13T06:02:44.005Z,99.99
2023-04-13T06:03:45.315Z,99.99
2023-04-13T06:04:45.612Z,99.99
2023-04-13T06:05:45.913Z,99.99
2023-04-13T06:06:46.606Z,99.99
2023-04-13T06:07:47.527Z,99.99
2023-04-13T06:08:48.013Z,99.99
2023-04-13T06:09:49.098Z,99.99
2023-04-13T06:10:50.029Z,99.99
2023-04-13T06:11:50.552Z,99.99
2023-04-13T06:12:51.568Z,99.99
2023-04-13T06:13:52.468Z,99.99
2023-04-13T06:14:53.074Z,99.99
2023-04-13T06:15:54.382Z,99.99
2023-04-13T06:16:54.981Z,99.99
2023-04-13T06:17:55.975Z,99.4
2023-04-13T06:18:56.022Z,99.11
2023-04-13T06:19:56.203Z,98.92
2023-04-13T06:20:57.157Z,98.45
2023-04-13T06:21:57.895Z,98.45
2023-04-13T06:22:58.591Z,99.77
2023-04-13T06:23:58.988Z,99.99
2023-04-13T06:24:58.940Z,99.99
2023-04-13T06:25:59.669Z,99.99
2023-04-13T06:27:00.232Z,99.54
2023-04-13T06:28:00.934Z,99.44
2023-04-13T06:29:01.099Z,99.99
2023-04-13T06:30:02.178Z,99.99
2023-04-13T06:31:02.965Z,99.92
2023-04-13T06:32:03.694Z,99.44
2023-04-13T06:33:04.402Z,99.99
2023-04-13T06:34:05.312Z,99.99
2023-04-13T06:35:06.085Z,99.99
2023-04-13T06:36:07.119Z,98.02
2023-04-13T06:37:07.689Z,96.41
2023-04-13T06:38:08.164Z,96.98
2023-04-13T06:39:08.668Z,98.12
2023-04-13T06:40:08.587Z,98.88
2023-04-13T06:41:09.295Z,98.4
2023-04-13T06:42:09.992Z,98.02
2023-04-13T06:43:22.751Z,98.4
2023-04-13T06:44:17.206Z,98.5
2023-04-13T06:45:17.701Z,97.69
2023-04-13T06:46:19.800Z,97.92
2023-04-13T06:47:18.868Z,98.21
2023-04-13T06:48:19.557Z,96.03
2023-04-13T06:49:20.267Z,94.32
2023-04-13T06:50:21.095Z,95.46
2023-04-13T06:51:21.952Z,97.74
2023-04-13T06:52:22.645Z,99.54
2023-04-13T06:53:23.150Z,99.99
2023-04-13T06:54:23.554Z,99.99
2023-04-13T06:55:23.901Z,99.99
2023-04-13T06:56:24.218Z,99.99
2023-04-13T06:57:24.739Z,99.99
2023-04-13T06:58:25.513Z,99.99
2023-04-13T06:59:26.419Z,99.99
2023-04-13T07:00:34.850Z,99.99
2023-04-13T07:01:27.975Z,99.99
2023-04-13T07:02:28.923Z,99.99
2023-04-13T07:03:29.511Z,99.99
2023-04-13T07:04:33.849Z,99.99
2023-04-13T07:05:29.446Z,99.99
2023-04-13T07:06:29.974Z,99.99
2023-04-13T07:07:30.926Z,99.99
2023-04-13T07:08:31.032Z,99.99
2023-04-13T07:09:31.551Z,99.99
2023-04-13T07:10:32.511Z,99.99
2023-04-13T07:11:33.357Z,99.99
2023-04-13T07:12:34.078Z,99.99
2023-04-13T07:13:34.234Z,99.99
2023-04-13T07:14:34.333Z,99.99
2023-04-13T07:15:35.156Z,99.99
2023-04-13T07:16:36.123Z,99.99
2023-04-13T07:17:36.975Z,99.99
2023-04-13T07:18:37.510Z,99.99
2023-04-13T07:19:38.393Z,99.99
2023-04-13T07:20:39.105Z,99.59
2023-04-13T07:21:39.833Z,99.3
2023-04-13T07:22:40.358Z,99.5
2023-04-13T07:23:41.072Z,98.93
2023-04-13T07:24:41.585Z,99.4
2023-04-13T07:25:42.337Z,99.11
2023-04-13T07:26:43.057Z,98.5
2023-04-13T07:27:43.364Z,97.83
2023-04-13T07:28:43.869Z,97.55
2023-04-13T07:29:44.775Z,96.6
2023-04-13T07:30:45.770Z,94.89
2023-04-13T07:31:46.497Z,93.75
2023-04-13T07:32:47.131Z,92.27
2023-04-13T07:33:48.193Z,93.7
2023-04-13T07:34:48.837Z,95.32
2023-04-13T07:35:49.759Z,92.51
2023-04-13T07:36:50.716Z,91.08
2023-04-13T07:37:52.787Z,91.18
2023-04-13T07:38:51.061Z,91.47
2023-04-13T07:39:51.891Z,91.94
2023-04-13T07:40:52.839Z,92.99
2023-04-13T07:41:53.743Z,93.08
2023-04-13T07:42:54.659Z,93.7
2023-04-13T07:43:55.372Z,91.8
2023-04-13T07:44:55.577Z,89.61
2023-04-13T07:45:56.830Z,87.61
2023-04-13T07:46:57.659Z,86.57
2023-04-13T07:47:58.386Z,86.85
2023-04-13T07:48:59.358Z,87.71
2023-04-13T07:49:59.371Z,88.56
2023-04-13T07:51:00.298Z,88.66
2023-04-13T07:52:01.286Z,87.18
2023-04-13T07:53:01.231Z,86.51
2023-04-13T07:54:02.138Z,84.61
2023-04-13T07:55:02.485Z,84.61
2023-04-13T07:56:03.268Z,85.47
2023-04-13T07:57:03.990Z,85.94
2023-04-13T07:58:04.513Z,85.28
2023-04-13T07:59:05.750Z,85.66
2023-04-13T08:00:05.425Z,83.8
2023-04-13T08:01:05.531Z,82.84
2023-04-13T08:02:06.012Z,82.08
2023-04-13T08:03:06.308Z,81.51
2023-04-13T08:04:06.790Z,82.7
2023-04-13T08:05:08.152Z,82.8
2023-04-13T08:06:07.843Z,82.84
2023-04-13T08:07:08.771Z,81.79
2023-04-13T08:08:09.503Z,81.79
2023-04-13T08:09:10.293Z,80.79
2023-04-13T08:10:11.249Z,80.12
2023-04-13T08:11:11.179Z,78.98
2023-04-13T08:12:12.095Z,78.78
2023-04-13T08:13:12.830Z,77.74
2023-04-13T08:14:13.715Z,77.97
2023-04-13T08:15:14.588Z,78.92
2023-04-13T08:16:15.642Z,79.49
2023-04-13T08:17:16.294Z,79.11
2023-04-13T08:18:16.465Z,79.02
2023-04-13T08:19:17.501Z,78.73
2023-04-13T08:20:18.202Z,78.3
2023-04-13T08:21:18.135Z,78.3
2023-04-13T08:22:19.074Z,77.53
2023-04-13T08:23:19.208Z,76.1
2023-04-13T08:24:19.506Z,75.43
2023-04-13T08:25:19.882Z,76.39
2023-04-13T08:26:20.687Z,76.39
2023-04-13T08:27:20.843Z,74.1
2023-04-13T08:28:21.404Z,73.24
2023-04-13T08:29:22.284Z,74.1
2023-04-13T08:30:23.443Z,74.57
2023-04-13T08:31:23.660Z,75.49
2023-04-13T08:32:24.531Z,75.11
2023-04-13T08:33:24.596Z,76.16
2023-04-13T08:34:25.349Z,77.01
2023-04-13T08:35:26.029Z,76.35
2023-04-13T08:36:26.376Z,76.82
2023-04-13T08:37:27.454Z,76.64
2023-04-13T08:38:28.441Z,76.73
2023-04-13T08:39:28.921Z,78.25
2023-04-13T08:40:29.653Z,78.73
2023-04-13T08:41:30.165Z,79.49
2023-04-13T08:42:32.434Z,78.78
2023-04-13T08:43:30.933Z,79.46
2023-04-13T08:44:31.630Z,79.46
2023-04-13T08:45:32.405Z,81.26
2023-04-13T08:46:33.003Z,80.69
2023-04-13T08:47:33.194Z,81.84
2023-04-13T08:48:53.270Z,81.84
2023-04-13T08:49:34.321Z,81.07
2023-04-13T08:50:34.813Z,79.83
2023-04-13T08:51:35.919Z,80.69
2023-04-13T08:52:36.508Z,80.6
2023-04-13T08:53:37.429Z,80.02
2023-04-13T08:54:38.346Z,80.12
2023-04-13T08:55:39.122Z,81.7
2023-04-13T08:56:51.072Z,82.46
2023-04-13T08:57:40.829Z,83.41
2023-04-13T08:58:41.105Z,84.08
2023-04-13T08:59:41.854Z,82.56
2023-04-13T09:00:42.188Z,82.18
2023-04-13T09:01:43.241Z,82.99
2023-04-13T09:03:02.815Z,83.28
2023-04-13T09:03:44.801Z,82.08
2023-04-13T09:04:45.088Z,81.98
2023-04-13T09:05:45.633Z,82.27
2023-04-13T09:06:46.714Z,82.08
2023-04-13T09:07:46.663Z,83.18
2023-04-13T09:08:46.956Z,83.37
2023-04-13T09:09:47.307Z,83.09
2023-04-13T09:10:48.224Z,84.42
2023-04-13T09:11:51.000Z,85.94
2023-04-13T09:12:49.765Z,85.89
2023-04-13T09:13:50.440Z,84.65
2023-04-13T09:14:50.622Z,84.17
2023-04-13T09:16:10.274Z,83.8
2023-04-13T09:17:12.478Z,83.41
2023-04-13T09:18:11.683Z,82.37
2023-04-13T09:19:11.645Z,80.36
2023-04-13T09:20:12.553Z,78.75
2023-04-13T09:21:13.701Z,78.69
2023-04-13T09:22:14.404Z,78.88
2023-04-13T09:23:15.410Z,80.5
2023-04-13T09:24:15.587Z,81.84
2023-04-13T09:25:16.356Z,81.46
2023-04-13T09:26:16.851Z,81.17
2023-04-13T09:27:17.611Z,80.31
2023-04-13T09:28:17.960Z,79.93
2023-04-13T09:29:18.871Z,79.13
2023-04-13T09:30:19.708Z,78.88
2023-04-13T09:31:21.021Z,79.36
2023-04-13T09:32:21.236Z,79.46
2023-04-13T09:33:22.200Z,78.5
2023-04-13T09:34:23.123Z,78.03
2023-04-13T09:35:24.106Z,77.93
2023-04-13T09:36:24.701Z,79.07
2023-04-13T09:37:25.218Z,77.83
2023-04-13T09:38:25.782Z,77.45
2023-04-13T09:39:26.806Z,78.12
2023-04-13T09:40:26.762Z,78.78
2023-04-13T09:41:27.513Z,78.69
2023-04-13T09:42:28.064Z,78.69
2023-04-13T09:43:28.957Z,79.46
2023-04-13T09:44:29.300Z,79.27
2023-04-13T09:45:30.225Z,79.36
2023-04-13T09:46:31.145Z,78.78
2023-04-13T09:47:31.370Z,78.69
2023-04-13T09:48:31.494Z,79.55
2023-04-13T09:49:32.219Z,78.69
2023-04-13T09:50:32.771Z,78.78
2023-04-13T09:51:33.691Z,79.17
2023-04-13T09:52:34.468Z,79.55
2023-04-13T09:53:35.492Z,79.93
2023-04-13T09:54:36.453Z,79.11
2023-04-13T09:55:36.547Z,78.35
2023-04-13T09:56:37.196Z,77.45
2023-04-13T09:57:38.418Z,77.74
2023-04-13T09:58:39.159Z,78.69
2023-04-13T09:59:40.248Z,78.5
2023-04-13T10:00:41.302Z,78.03
2023-04-13T10:01:42.322Z,77.45
2023-04-13T10:02:42.645Z,77.74
2023-04-13T10:03:43.245Z,78.69
2023-04-13T10:04:43.480Z,80.54
2023-04-13T10:05:59.828Z,79.68
2023-04-13T10:07:49.205Z,79.78
2023-04-13T10:08:49.352Z,78.54
2023-04-13T10:09:49.655Z,77.69
2023-04-13T10:10:50.362Z,76.06
2023-04-13T10:11:50.274Z,73.49
2023-04-13T10:12:51.246Z,72.44
2023-04-13T10:13:51.801Z,73.39
2023-04-13T10:14:52.727Z,73.96
2023-04-13T10:15:53.297Z,74.54
2023-04-13T10:16:54.070Z,75.96
2023-04-13T10:17:55.232Z,73.49
2023-04-13T10:18:55.210Z,70.82
2023-04-13T10:19:55.540Z,69.39
2023-04-13T10:20:55.480Z,69.52
2023-04-13T10:21:57.064Z,70.67
2023-04-13T10:22:56.883Z,70.76
2023-04-13T10:23:57.402Z,68.76
2023-04-13T10:24:57.109Z,67.42
2023-04-13T10:25:57.317Z,67.04
2023-04-13T10:26:57.996Z,68.28
2023-04-13T10:27:59.005Z,67.96
2023-04-13T10:28:59.511Z,67.58
2023-04-13T10:29:59.400Z,66.94
2023-04-13T10:31:00.174Z,67.33
2023-04-13T10:32:01.516Z,68.57
2023-04-13T10:33:01.270Z,68.91
2023-04-13T10:34:01.565Z,68.44
2023-04-13T10:35:01.964Z,68.63
2023-04-13T10:36:02.744Z,67.29
2023-04-13T10:37:03.233Z,67.74
2023-04-13T10:38:03.550Z,69.93
2023-04-13T10:39:04.590Z,70.69
2023-04-13T10:40:04.795Z,71.36
2023-04-13T10:41:07.156Z,71.07
2023-04-13T10:42:06.024Z,71.36
2023-04-13T10:43:06.954Z,71.26
2023-04-13T10:44:07.954Z,72.69
2023-04-13T10:45:08.935Z,72.69
2023-04-13T10:46:09.900Z,72.97
2023-04-13T10:47:11.278Z,70.97
2023-04-13T10:48:10.857Z,70.12
2023-04-13T10:49:12.022Z,69.45
2023-04-13T10:50:12.955Z,69.04
2023-04-13T10:51:13.928Z,68.94
2023-04-13T10:52:13.873Z,68.94
2023-04-13T10:53:14.787Z,69.6
2023-04-13T10:54:15.724Z,69.99
2023-04-13T10:55:16.447Z,69.7
2023-04-13T10:56:16.351Z,69.42
2023-04-13T10:57:17.668Z,69.57
2023-04-13T10:58:18.444Z,68.05
2023-04-13T10:59:19.394Z,68.05
2023-04-13T11:00:20.448Z,68.9
2023-04-13T11:01:20.551Z,69.19
2023-04-13T11:02:21.581Z,69.29
2023-04-13T11:03:23.146Z,69.19
2023-04-13T11:04:24.474Z,69.19
2023-04-13T11:05:23.644Z,68.62
2023-04-13T11:06:24.493Z,68.43
2023-04-13T11:07:25.148Z,68.9
2023-04-13T11:08:26.570Z,67.38
2023-04-13T11:09:26.508Z,67
2023-04-13T11:10:27.205Z,67.35
2023-04-13T11:11:27.711Z,67.44
2023-04-13T11:12:28.408Z,66.97
2023-04-13T11:13:29.396Z,68.11
2023-04-13T11:14:29.425Z,67.44
2023-04-13T11:15:29.591Z,67.63
2023-04-13T11:16:30.377Z,67.44
2023-04-13T11:17:31.138Z,67.44
2023-04-13T11:18:30.922Z,67.44
2023-04-13T11:19:31.643Z,67.44
2023-04-13T11:20:32.178Z,67.63
2023-04-13T11:21:32.914Z,67.35
2023-04-13T11:22:33.868Z,67.92
2023-04-13T11:23:34.390Z,69.82
2023-04-13T11:24:35.441Z,71.44
2023-04-13T11:25:35.953Z,69.92
2023-04-13T11:26:36.271Z,70.14
2023-04-13T11:27:36.942Z,69.29
2023-04-13T11:28:37.672Z,69.29
2023-04-13T11:29:38.428Z,69.57
2023-04-13T11:30:38.416Z,71.09
2023-04-13T11:31:39.328Z,70.9
2023-04-13T11:32:39.581Z,71.38
2023-04-13T11:33:40.392Z,71.28
2023-04-13T11:34:40.369Z,71
2023-04-13T11:35:40.882Z,70.05
2023-04-13T11:36:41.149Z,70.05
2023-04-13T11:37:41.665Z,70.2
2023-04-13T11:38:42.663Z,69.76
2023-04-13T11:39:43.793Z,71.06
2023-04-13T11:40:43.690Z,71.25
2023-04-13T11:41:43.876Z,71.25
2023-04-13T11:42:44.400Z,71.53
2023-04-13T11:43:44.344Z,71.34
2023-04-13T11:44:44.846Z,70.77
2023-04-13T11:45:45.164Z,70.49
2023-04-13T11:46:45.903Z,69.73
2023-04-13T11:47:46.314Z,70.2
2023-04-13T11:48:46.640Z,71.15
2023-04-13T11:49:46.754Z,72.01
2023-04-13T11:50:47.506Z,72.3
2023-04-13T11:51:48.010Z,72.39
2023-04-13T11:52:48.540Z,72.01
2023-04-13T11:53:49.441Z,70.97
2023-04-13T11:54:50.366Z,72.01
2023-04-13T11:55:58.594Z,71.72
2023-04-13T11:56:53.772Z,71.72
2023-04-13T11:58:52.621Z,73.15
2023-04-13T11:59:53.600Z,73.25
2023-04-13T12:00:54.642Z,73.15
2023-04-13T12:02:03.048Z,72.86
2023-04-13T12:03:12.077Z,72.58
2023-04-13T12:04:20.911Z,73.15
2023-04-13T12:05:11.621Z,73.53
2023-04-13T12:06:12.621Z,72.77
2023-04-13T12:07:13.940Z,73.25
2023-04-13T12:08:14.462Z,72.77
2023-04-13T12:09:20.742Z,73.44
2023-04-13T12:10:23.100Z,73.78
2023-04-13T12:11:49.998Z,73.91
2023-04-13T12:12:51.668Z,73.25
2023-04-13T12:15:15.810Z,74.01
2023-04-13T12:16:45.215Z,74.2
2023-04-13T12:18:13.256Z,73.82
2023-04-13T12:18:58.341Z,74.01
2023-04-13T12:19:57.871Z,73.82
2023-04-13T12:20:57.829Z,73.63
2023-04-13T12:22:00.300Z,74.01
2023-04-13T12:23:15.260Z,74.01
2023-04-13T12:24:00.778Z,73.91
2023-04-13T12:25:02.461Z,73.82
2023-04-13T12:26:08.105Z,75.15
2023-04-13T12:27:22.114Z,75.15
2023-04-13T12:28:02.942Z,73.91
2023-04-13T12:29:04.138Z,73.15
2023-04-13T12:30:04.561Z,73.34
2023-04-13T12:31:05.484Z,73.53
2023-04-13T12:32:05.880Z,73.25
2023-04-13T12:33:06.483Z,73.06
2023-04-13T12:34:07.428Z,72.39
2023-04-13T12:35:07.696Z,72.96
2023-04-13T12:36:08.272Z,73.53
2023-04-13T12:37:08.362Z,74.67
2023-04-13T12:38:09.026Z,73.53
2023-04-13T12:39:10.298Z,72.01
2023-04-13T12:40:10.523Z,71.44
2023-04-13T12:41:11.337Z,71.53
2023-04-13T12:42:11.228Z,71.72
2023-04-13T12:43:12.136Z,70.39
2023-04-13T12:44:13.089Z,70.87
2023-04-13T12:45:14.036Z,72.3
2023-04-13T12:46:14.555Z,71.63
2023-04-13T12:47:15.746Z,72.49
2023-04-13T12:48:16.402Z,72.67
2023-04-13T12:49:17.295Z,72.2
2023-04-13T12:50:18.049Z,72.77
2023-04-13T12:51:18.414Z,73.63
2023-04-13T12:52:18.922Z,72.49
2023-04-13T12:53:19.055Z,72.77
2023-04-13T12:54:19.776Z,73.38
2023-04-13T12:55:20.725Z,73.28
2023-04-13T12:56:21.187Z,72.3
2023-04-13T12:57:21.358Z,72.58
2023-04-13T12:58:21.880Z,72.11
2023-04-13T12:59:22.653Z,72.96
2023-04-13T13:00:23.131Z,72.39
2023-04-13T13:01:23.828Z,72.86
2023-04-13T13:02:24.322Z,72.49
2023-04-13T13:03:24.601Z,72.49
2023-04-13T13:04:25.691Z,72.67
2023-04-13T13:05:25.905Z,73
2023-04-13T13:06:26.794Z,72.05
2023-04-13T13:07:27.038Z,72.62
2023-04-13T13:08:27.225Z,71.95